createdAt,value
2018-07-13T00:02:27.240Z,101461.97
2018-07-13T00:04:55.546Z,101473.22
2018-07-13T00:07:23.712Z,101468.41
2018-07-13T00:09:52.048Z,101473.16
2018-07-13T00:12:20.484Z,101470.33
2018-07-13T00:15:00.010Z,101469.75
2018-07-13T00:17:29.076Z,101475.24
2018-07-13T00:19:57.484Z,101469.85
2018-07-13T00:22:26.032Z,101478.05
2018-07-13T00:24:54.131Z,101479.70
2018-07-13T00:27:22.732Z,101475.41
2018-07-13T00:29:51.160Z,101480.12
2018-07-13T00:32:19.568Z,101478.17
2018-07-13T00:34:48.040Z,101480.79
2018-07-13T00:37:16.517Z,101480.50
2018-07-13T00:39:45.020Z,101480.02
2018-07-13T00:42:13.629Z,101477.23
2018-07-13T00:44:42.186Z,101480.06
2018-07-13T00:47:10.276Z,101479.62
2018-07-13T00:49:39.283Z,101482.96
2018-07-13T00:52:08.444Z,101485.60
2018-07-13T00:54:37.124Z,101485.72
2018-07-13T00:57:05.556Z,101486.19
2018-07-13T00:59:34.020Z,101481.97
2018-07-13T01:02:02.488Z,101486.27
2018-07-13T01:04:31.297Z,101477.48
2018-07-13T01:06:59.854Z,101482.56
2018-07-13T01:09:29.448Z,101476.91
2018-07-13T01:11:57.968Z,101483.47
2018-07-13T01:14:26.319Z,101484.61
2018-07-13T01:16:55.100Z,101477.93
2018-07-13T01:19:23.461Z,101474.84
2018-07-13T01:21:52.411Z,101475.98
2018-07-13T01:24:21.412Z,101480.42
2018-07-13T01:26:49.816Z,101476.34
2018-07-13T01:29:17.953Z,101473.86
2018-07-13T01:31:46.672Z,101477.08
2018-07-13T01:34:15.376Z,101470.06
2018-07-13T01:36:43.757Z,101472.78
2018-07-13T01:39:13.316Z,101475.21
2018-07-13T01:41:41.936Z,101474.22
2018-07-13T01:44:10.388Z,101474.84
2018-07-13T01:46:39.075Z,101480.42
2018-07-13T01:49:07.511Z,101480.34
2018-07-13T01:51:36.266Z,101476.30
2018-07-13T01:54:04.708Z,101474.83
2018-07-13T01:56:33.044Z,101475.52
2018-07-13T01:59:01.434Z,101472.44
2018-07-13T02:01:29.995Z,101474.39
2018-07-13T02:03:58.539Z,101471.92
2018-07-13T02:06:27.500Z,101473.94
2018-07-13T02:08:56.205Z,101469.61
2018-07-13T02:11:24.516Z,101479.11
2018-07-13T02:13:53.461Z,101481.34
2018-07-13T02:16:21.815Z,101476.06
2018-07-13T02:18:50.344Z,101481.59
2018-07-13T02:21:18.804Z,101482.20
2018-07-13T02:23:47.536Z,101485.17
2018-07-13T02:26:16.609Z,101483.81
2018-07-13T02:28:45.438Z,101489.10
2018-07-13T02:31:13.865Z,101486.16
2018-07-13T02:33:42.373Z,101481.20
2018-07-13T02:36:11.361Z,101482.45
2018-07-13T02:38:39.459Z,101481.69
2018-07-13T02:41:08.309Z,101474.53
2018-07-13T02:43:37.079Z,101483.67
2018-07-13T02:46:05.444Z,101481.95
2018-07-13T02:48:33.560Z,101480.30
2018-07-13T02:51:02.488Z,101480.81
2018-07-13T02:53:30.581Z,101482.31
2018-07-13T02:55:59.400Z,101479.67
2018-07-13T02:58:27.840Z,101475.89
2018-07-13T03:00:56.545Z,101481.33
2018-07-13T03:03:25.710Z,101482.31
2018-07-13T03:05:54.332Z,101483.16
2018-07-13T03:08:22.617Z,101482.39
2018-07-13T03:10:51.409Z,101487.74
2018-07-13T03:13:20.045Z,101494.02
2018-07-13T03:15:48.200Z,101496.62
2018-07-13T03:18:16.328Z,101491.30
2018-07-13T03:20:44.511Z,101503.27
2018-07-13T03:23:12.623Z,101500.34
2018-07-13T03:25:40.732Z,101502.29
2018-07-13T03:28:09.351Z,101501.64
2018-07-13T03:30:37.828Z,101507.83
2018-07-13T03:33:06.551Z,101503.05
2018-07-13T03:35:35.491Z,101507.13
2018-07-13T03:38:04.361Z,101501.70
2018-07-13T03:40:32.520Z,101509.39
2018-07-13T03:43:00.972Z,101506.93
2018-07-13T03:45:29.611Z,101505.83
2018-07-13T03:47:58.524Z,101509.67
2018-07-13T03:50:26.960Z,101513.09
2018-07-13T03:52:55.600Z,101516.44
2018-07-13T03:55:24.051Z,101512.95
2018-07-13T03:57:52.296Z,101512.36
2018-07-13T04:00:20.411Z,101515.70
2018-07-13T04:02:49.104Z,101522.34
2018-07-13T04:05:17.547Z,101515.27
2018-07-13T04:07:45.936Z,101516.13
2018-07-13T04:10:14.714Z,101521.19
2018-07-13T04:12:42.804Z,101522.88
2018-07-13T04:15:11.393Z,101517.49
2018-07-13T04:17:39.567Z,101522.05
2018-07-13T04:20:08.156Z,101520.43
2018-07-13T04:22:36.596Z,101524.20
2018-07-13T04:25:04.984Z,101531.63
2018-07-13T04:27:34.635Z,101527.38
2018-07-13T04:30:03.053Z,101529.32
2018-07-13T04:32:31.601Z,101525.56
2018-07-13T04:35:00.264Z,101531.29
2018-07-13T04:37:29.702Z,101530.11
2018-07-13T04:39:58.147Z,101530.25
2018-07-13T04:42:26.688Z,101536.25
2018-07-13T04:44:55.729Z,101535.64
2018-07-13T04:47:24.074Z,101543.69
2018-07-13T04:49:53.047Z,101541.30
2018-07-13T04:52:20.939Z,101537.30
2018-07-13T04:54:49.836Z,101539.02
2018-07-13T04:57:18.176Z,101538.54
2018-07-13T04:59:47.329Z,101535.94
2018-07-13T05:02:15.697Z,101536.45
2018-07-13T05:04:44.049Z,101531.63
2018-07-13T05:07:12.663Z,101536.08
2018-07-13T05:09:41.212Z,101535.60
2018-07-13T05:12:09.883Z,101537.84
2018-07-13T05:14:38.480Z,101535.20
2018-07-13T05:17:06.848Z,101532.77
2018-07-13T05:19:35.765Z,101531.81
2018-07-13T05:22:04.124Z,101535.49
2018-07-13T05:24:32.943Z,101538.66
2018-07-13T05:27:01.137Z,101544.28
2018-07-13T05:29:29.925Z,101540.56
2018-07-13T05:31:58.884Z,101546.23
2018-07-13T05:34:27.211Z,101552.91
2018-07-13T05:36:55.665Z,101545.17
2018-07-13T05:39:23.791Z,101544.06
2018-07-13T05:41:52.144Z,101545.37
2018-07-13T05:44:20.768Z,101546.65
2018-07-13T05:46:49.776Z,101544.42
2018-07-13T05:49:18.540Z,101548.72
2018-07-13T05:51:46.822Z,101551.62
2018-07-13T05:54:15.164Z,101556.06
2018-07-13T05:56:43.992Z,101557.61
2018-07-13T05:59:12.388Z,101558.05
2018-07-13T06:01:41.048Z,101559.45
2018-07-13T06:04:09.824Z,101560.22
2018-07-13T06:06:38.374Z,101568.30
2018-07-13T06:09:08.627Z,101558.45
2018-07-13T06:11:36.970Z,101560.95
2018-07-13T06:14:05.906Z,101563.16
2018-07-13T06:16:34.540Z,101568.92
2018-07-13T06:19:02.630Z,101569.88
2018-07-13T06:21:31.232Z,101568.63
2018-07-13T06:24:00.381Z,101572.72
2018-07-13T06:26:30.423Z,101576.53
2018-07-13T06:28:58.646Z,101576.46
2018-07-13T06:31:27.148Z,101569.30
2018-07-13T06:33:55.620Z,101576.05
2018-07-13T06:36:24.044Z,101578.74
2018-07-13T06:38:52.136Z,101574.84
2018-07-13T06:41:20.765Z,101568.94
2018-07-13T06:43:49.276Z,101570.62
2018-07-13T06:46:17.615Z,101570.43
2018-07-13T06:48:45.899Z,101572.14
2018-07-13T06:51:14.740Z,101572.14
2018-07-13T06:53:43.284Z,101573.63
2018-07-13T06:56:11.684Z,101578.80
2018-07-13T06:58:51.016Z,101586.84
2018-07-13T07:01:25.717Z,101586.92
2018-07-13T07:04:27.580Z,101592.17
2018-07-13T07:06:56.221Z,101586.83
2018-07-13T07:09:25.789Z,101594.11
2018-07-13T07:12:02.750Z,101592.34
2018-07-13T07:14:31.439Z,101594.09
2018-07-13T07:16:59.528Z,101599.00
2018-07-13T07:19:28.029Z,101600.16
2018-07-13T07:21:56.124Z,101598.17
2018-07-13T07:24:24.549Z,101598.70
2018-07-13T07:26:52.820Z,101596.91
2018-07-13T07:29:21.188Z,101598.85
2018-07-13T07:31:49.808Z,101601.63
2018-07-13T07:34:17.932Z,101605.92
2018-07-13T07:36:46.329Z,101602.52
2018-07-13T07:39:14.797Z,101601.89
2018-07-13T07:41:43.264Z,101599.02
2018-07-13T07:44:11.919Z,101600.37
2018-07-13T07:46:40.377Z,101593.19
2018-07-13T07:49:08.768Z,101594.64
2018-07-13T07:51:37.877Z,101597.48
2018-07-13T07:54:06.685Z,101601.36
2018-07-13T07:56:35.416Z,101601.12
2018-07-13T07:59:03.895Z,101609.54
2018-07-13T08:01:32.251Z,101612.23
2018-07-13T08:04:01.409Z,101614.95
2018-07-13T08:06:30.695Z,101618.98
2018-07-13T08:08:59.224Z,101612.25
2018-07-13T08:11:27.339Z,101608.30
2018-07-13T08:13:55.920Z,101609.01
2018-07-13T08:16:24.467Z,101605.84
2018-07-13T08:18:53.036Z,101610.07
2018-07-13T08:21:21.404Z,101604.90
2018-07-13T08:23:49.751Z,101606.39
2018-07-13T08:26:18.161Z,101611.84
2018-07-13T08:28:46.739Z,101609.41
2018-07-13T08:31:15.288Z,101609.09
2018-07-13T08:33:43.732Z,101610.57
2018-07-13T08:36:12.592Z,101611.89
2018-07-13T08:38:41.309Z,101610.73
2018-07-13T08:41:09.661Z,101612.53
2018-07-13T08:43:38.481Z,101624.33
2018-07-13T08:46:06.820Z,101623.61
2018-07-13T08:48:35.219Z,101628.34
2018-07-13T08:51:03.759Z,101629.66
2018-07-13T08:53:32.207Z,101631.06
2018-07-13T08:56:00.536Z,101626.92
2018-07-13T08:58:31.093Z,101634.19
2018-07-13T09:00:59.600Z,101636.03
2018-07-13T09:03:28.337Z,101634.98
2018-07-13T09:05:56.466Z,101630.45
2018-07-13T09:08:24.588Z,101633.52
2018-07-13T09:10:52.857Z,101636.30
2018-07-13T09:13:21.131Z,101632.60
2018-07-13T09:15:49.239Z,101632.52
2018-07-13T09:18:17.417Z,101640.59
2018-07-13T09:20:46.528Z,101636.81
2018-07-13T09:23:14.640Z,101635.64
2018-07-13T09:25:43.779Z,101642.87
2018-07-13T09:28:12.149Z,101644.50
2018-07-13T09:33:08.268Z,101642.17
2018-07-13T09:35:36.700Z,101636.83
2018-07-13T09:38:05.244Z,101640.20
2018-07-13T09:40:33.467Z,101639.23
2018-07-13T09:43:01.921Z,101634.31
2018-07-13T09:45:30.407Z,101635.81
2018-07-13T09:47:59.296Z,101638.00
2018-07-13T09:50:27.651Z,101637.90
2018-07-13T09:52:56.209Z,101634.29
2018-07-13T09:55:24.331Z,101631.84
2018-07-13T09:57:52.658Z,101632.55
2018-07-13T10:00:21.327Z,101636.41
2018-07-13T10:02:49.440Z,101635.92
2018-07-13T10:05:17.559Z,101636.89
2018-07-13T10:07:46.165Z,101635.58
2018-07-13T10:10:14.508Z,101629.75
2018-07-13T10:12:42.839Z,101630.69
2018-07-13T10:15:11.415Z,101622.98
2018-07-13T10:17:40.385Z,101636.45
2018-07-13T10:20:08.601Z,101631.14
2018-07-13T10:22:37.403Z,101637.63
2018-07-13T10:25:06.343Z,101632.41
2018-07-13T10:27:36.615Z,101626.45
2018-07-13T10:30:05.845Z,101624.89
2018-07-13T10:32:34.927Z,101624.36
2018-07-13T10:35:05.329Z,101623.28
2018-07-13T10:37:34.124Z,101623.48
2018-07-13T10:40:03.004Z,101626.87
2018-07-13T10:42:31.747Z,101624.70
2018-07-13T10:45:00.140Z,101610.53
2018-07-13T10:47:28.360Z,101612.45
2018-07-13T10:49:56.468Z,101611.62
2018-07-13T10:52:24.578Z,101614.83
2018-07-13T10:54:53.260Z,101616.11
2018-07-13T10:57:22.137Z,101610.60
2018-07-13T10:59:50.584Z,101606.45
2018-07-13T11:02:18.872Z,101610.75
2018-07-13T11:04:47.517Z,101607.55
2018-07-13T11:07:15.625Z,101608.91
2018-07-13T11:09:44.245Z,101601.80
2018-07-13T11:12:12.644Z,101598.36
2018-07-13T11:14:40.942Z,101602.80
2018-07-13T11:17:09.354Z,101599.52
2018-07-13T11:19:37.879Z,101597.16
2018-07-13T11:22:06.536Z,101597.75
2018-07-13T11:24:34.837Z,101593.37
2018-07-13T11:27:03.237Z,101589.97
2018-07-13T11:29:31.636Z,101589.02
2018-07-13T11:32:00.073Z,101582.47
2018-07-13T11:34:28.944Z,101588.41
2018-07-13T11:36:57.659Z,101585.80
2018-07-13T11:39:26.552Z,101578.17
2018-07-13T11:41:54.997Z,101577.09
2018-07-13T11:44:23.731Z,101576.98
2018-07-13T11:46:52.676Z,101584.00
2018-07-13T11:49:21.096Z,101579.23
2018-07-13T11:51:49.640Z,101581.94
2018-07-13T11:54:18.477Z,101575.76
2018-07-13T11:56:47.212Z,101579.82
2018-07-13T11:59:15.437Z,101578.05
2018-07-13T12:01:43.725Z,101574.94
2018-07-13T12:04:12.386Z,101577.34
2018-07-13T12:06:40.680Z,101567.67
2018-07-13T12:09:09.550Z,101569.16
2018-07-13T12:11:38.356Z,101565.70
2018-07-13T12:14:06.733Z,101568.38
2018-07-13T12:16:34.886Z,101565.63
2018-07-13T12:19:03.408Z,101560.34
2018-07-13T12:21:31.737Z,101555.13
2018-07-13T12:23:59.844Z,101552.03
2018-07-13T12:26:28.476Z,101550.60
2018-07-13T12:28:56.559Z,101553.83
2018-07-13T12:31:24.906Z,101546.75
2018-07-13T12:33:53.284Z,101548.58
2018-07-13T12:36:21.404Z,101544.25
2018-07-13T12:38:49.504Z,101544.02
2018-07-13T12:41:17.649Z,101546.88
2018-07-13T12:43:45.751Z,101544.97
2018-07-13T12:46:14.005Z,101543.91
2018-07-13T12:48:42.930Z,101537.72
2018-07-13T12:51:11.593Z,101536.55
2018-07-13T12:53:39.960Z,101531.44
2018-07-13T12:56:08.578Z,101530.75
2018-07-13T12:58:37.232Z,101530.42
2018-07-13T13:01:05.585Z,101525.36
2018-07-13T13:03:33.856Z,101525.02
2018-07-13T13:06:03.032Z,101532.47
2018-07-13T13:08:31.800Z,101527.81
2018-07-13T13:10:59.909Z,101533.16
2018-07-13T13:13:28.348Z,101532.45
2018-07-13T13:15:56.992Z,101527.39
2018-07-13T13:18:25.160Z,101527.03
2018-07-13T13:20:53.521Z,101527.65
2018-07-13T13:23:21.651Z,101523.95
2018-07-13T13:25:50.149Z,101517.89
2018-07-13T13:28:18.576Z,101509.69
2018-07-13T13:30:47.159Z,101517.78
2018-07-13T13:33:15.912Z,101515.11
2018-07-13T13:35:44.336Z,101518.11
2018-07-13T13:38:12.952Z,101512.98
2018-07-13T13:40:41.395Z,101518.13
2018-07-13T13:43:09.626Z,101518.59
2018-07-13T13:45:37.920Z,101520.33
2018-07-13T13:48:06.013Z,101514.44
2018-07-13T13:50:34.125Z,101521.72
2018-07-13T13:53:02.897Z,101512.40
2018-07-13T13:55:31.748Z,101508.22
2018-07-13T13:58:00.080Z,101517.58
2018-07-13T14:00:28.684Z,101523.97
2018-07-13T14:02:57.201Z,101515.12
2018-07-13T14:05:25.673Z,101519.92
2018-07-13T14:07:53.921Z,101519.85
2018-07-13T14:10:22.587Z,101511.58
2018-07-13T14:12:51.024Z,101521.41
2018-07-13T14:15:19.693Z,101525.59
2018-07-13T14:17:48.079Z,101513.75
2018-07-13T14:20:16.453Z,101506.47
2018-07-13T14:22:44.996Z,101499.45
2018-07-13T14:25:13.428Z,101498.19
2018-07-13T14:27:41.804Z,101502.02
2018-07-13T14:30:10.135Z,101505.86
2018-07-13T14:32:39.317Z,101501.34
2018-07-13T14:35:07.646Z,101501.28
2018-07-13T14:37:36.591Z,101492.03
2018-07-13T14:40:04.801Z,101496.25
2018-07-13T14:42:33.597Z,101496.44
2018-07-13T14:45:02.709Z,101487.31
2018-07-13T14:47:31.597Z,101496.81
2018-07-13T14:50:00.109Z,101487.71
2018-07-13T14:52:28.929Z,101493.17
2018-07-13T14:54:57.355Z,101488.50
2018-07-13T14:57:25.784Z,101492.86
2018-07-13T14:59:53.962Z,101485.77
2018-07-13T15:02:22.392Z,101484.19
2018-07-13T15:04:50.835Z,101478.34
2018-07-13T15:07:19.405Z,101477.37
2018-07-13T15:09:48.081Z,101477.33
2018-07-13T15:12:16.706Z,101477.15
2018-07-13T15:14:45.089Z,101470.06
2018-07-13T15:17:13.757Z,101477.15
2018-07-13T15:19:42.608Z,101473.44
2018-07-13T15:22:11.132Z,101475.98
2018-07-13T15:24:39.554Z,101473.66
2018-07-13T15:27:11.884Z,101469.75
2018-07-13T15:29:40.264Z,101480.08
2018-07-13T15:32:09.003Z,101470.46
2018-07-13T15:34:37.588Z,101478.44
2018-07-13T15:37:06.132Z,101473.00
2018-07-13T15:39:34.760Z,101470.06
2018-07-13T15:42:03.025Z,101466.94
2018-07-13T15:44:31.128Z,101472.70
2018-07-13T15:46:59.787Z,101480.11
2018-07-13T15:49:27.980Z,101474.51
2018-07-13T15:51:57.004Z,101475.27
2018-07-13T15:54:25.304Z,101475.17
2018-07-13T15:56:53.572Z,101471.67
2018-07-13T15:59:22.269Z,101475.22
2018-07-13T16:01:50.600Z,101472.09
2018-07-13T16:04:19.472Z,101471.64
2018-07-13T16:06:48.524Z,101468.21
2018-07-13T16:09:16.891Z,101460.84
2018-07-13T16:11:45.227Z,101465.84
2018-07-13T16:14:13.852Z,101469.34
2018-07-13T16:16:42.249Z,101469.66
2018-07-13T16:19:10.364Z,101471.20
2018-07-13T16:21:38.783Z,101470.58
2018-07-13T16:24:07.044Z,101472.11
2018-07-13T16:26:35.472Z,101472.77
2018-07-13T16:29:03.584Z,101469.26
2018-07-13T16:31:32.025Z,101474.37
2018-07-13T16:34:00.507Z,101466.84
2018-07-13T16:36:29.032Z,101466.12
2018-07-13T16:38:57.390Z,101473.61
2018-07-13T16:41:26.089Z,101458.48
2018-07-13T16:43:55.041Z,101455.08
2018-07-13T16:46:23.145Z,101462.23
2018-07-13T16:48:52.428Z,101449.53
2018-07-13T16:51:20.520Z,101457.42
2018-07-13T16:53:48.640Z,101460.30
2018-07-13T16:56:17.489Z,101457.02
2018-07-13T16:58:46.920Z,101462.33
2018-07-13T17:01:15.252Z,101455.62
2018-07-13T17:03:43.485Z,101456.67
2018-07-13T17:06:12.456Z,101454.66
2018-07-13T17:08:40.606Z,101460.09
2018-07-13T17:11:09.019Z,101463.22
2018-07-13T17:13:37.236Z,101451.48
2018-07-13T17:16:05.976Z,101450.85
2018-07-13T17:18:34.645Z,101462.62
2018-07-13T17:21:03.161Z,101455.28
2018-07-13T17:23:31.436Z,101445.06
2018-07-13T17:26:00.060Z,101463.01
2018-07-13T17:28:28.780Z,101458.48
2018-07-13T17:30:57.672Z,101451.70
2018-07-13T17:33:26.092Z,101467.70
2018-07-13T17:35:54.814Z,101472.28
2018-07-13T17:38:23.432Z,101458.48
2018-07-13T17:40:51.676Z,101457.47
2018-07-13T17:43:20.109Z,101460.33
2018-07-13T17:45:48.457Z,101460.69
2018-07-13T17:48:16.548Z,101458.91
2018-07-13T17:50:44.971Z,101454.88
2018-07-13T17:53:13.912Z,101459.91
2018-07-13T17:55:42.478Z,101464.03
2018-07-13T17:58:10.556Z,101464.91
2018-07-13T18:00:40.513Z,101462.88
2018-07-13T18:03:09.123Z,101464.75
2018-07-13T18:05:37.461Z,101465.72
2018-07-13T18:08:05.572Z,101474.00
2018-07-13T18:10:34.588Z,101474.37
2018-07-13T18:13:02.700Z,101476.26
2018-07-13T18:15:31.039Z,101471.15
2018-07-13T18:17:59.432Z,101470.14
2018-07-13T18:20:27.795Z,101476.38
2018-07-13T18:22:55.953Z,101473.36
2018-07-13T18:25:24.304Z,101474.89
2018-07-13T18:27:52.601Z,101478.02
2018-07-13T18:30:21.385Z,101476.85
2018-07-13T18:32:50.100Z,101476.11
2018-07-13T18:35:18.812Z,101473.48
2018-07-13T18:37:46.936Z,101481.70
2018-07-13T18:40:15.064Z,101483.50
2018-07-13T18:42:43.631Z,101475.74
2018-07-13T18:45:11.732Z,101481.06
2018-07-13T18:47:40.656Z,101487.86
2018-07-13T18:50:08.783Z,101485.73
2018-07-13T18:52:37.205Z,101488.35
2018-07-13T18:55:05.557Z,101497.16
2018-07-13T18:57:33.829Z,101495.19
2018-07-13T19:00:02.294Z,101501.79
2018-07-13T19:02:30.917Z,101504.95
2018-07-13T19:04:59.309Z,101509.16
2018-07-13T19:07:27.656Z,101515.57
2018-07-13T19:09:56.248Z,101512.70
2018-07-13T19:12:24.691Z,101521.34
2018-07-13T19:14:53.193Z,101521.69
2018-07-13T19:17:21.487Z,101524.80
2018-07-13T19:19:50.351Z,101524.11
2018-07-13T19:22:18.952Z,101527.59
2018-07-13T19:24:47.129Z,101531.21
2018-07-13T19:27:15.516Z,101533.78
2018-07-13T19:29:44.208Z,101538.92
2018-07-13T19:32:13.001Z,101534.64
2018-07-13T19:34:41.095Z,101542.48
2018-07-13T19:37:09.869Z,101542.66
2018-07-13T19:39:37.973Z,101542.83
2018-07-13T19:42:06.735Z,101548.31
2018-07-13T19:44:35.024Z,101559.13
2018-07-13T19:47:03.583Z,101560.80
2018-07-13T19:49:32.045Z,101560.27
2018-07-13T19:52:00.148Z,101570.55
2018-07-13T19:54:28.581Z,101572.73
2018-07-13T19:56:56.953Z,101582.83
2018-07-13T19:59:25.479Z,101587.23
2018-07-13T20:01:54.229Z,101582.56
2018-07-13T20:04:22.756Z,101581.65
2018-07-13T20:06:51.245Z,101585.72
2018-07-13T20:09:19.552Z,101583.30
2018-07-13T20:11:47.960Z,101584.62
2018-07-13T20:14:16.056Z,101587.98
2018-07-13T20:16:44.840Z,101584.04
2018-07-13T20:19:13.089Z,101584.48
2018-07-13T20:21:42.036Z,101588.53
2018-07-13T20:24:10.713Z,101589.84
2018-07-13T20:26:38.881Z,101591.16
2018-07-13T20:29:07.184Z,101593.80
2018-07-13T20:31:35.955Z,101598.19
2018-07-13T20:34:04.409Z,101617.45
2018-07-13T20:36:32.708Z,101615.18
2018-07-13T20:39:00.800Z,101622.12
2018-07-13T20:41:28.892Z,101620.14
2018-07-13T20:43:57.336Z,101632.01
2018-07-13T20:46:26.060Z,101629.84
2018-07-13T20:48:54.507Z,101624.81
2018-07-13T20:51:22.748Z,101631.20
2018-07-13T20:53:51.233Z,101628.27
2018-07-13T20:56:19.839Z,101634.09
2018-07-13T20:58:48.732Z,101633.14
2018-07-13T21:01:17.443Z,101633.76
2018-07-13T21:03:45.837Z,101641.39
2018-07-13T21:06:13.947Z,101636.94
2018-07-13T21:08:42.203Z,101640.48
2018-07-13T21:11:10.876Z,101640.25
2018-07-13T21:13:39.338Z,101645.70
2018-07-13T21:16:07.956Z,101636.47
2018-07-13T21:18:36.412Z,101638.48
2018-07-13T21:21:05.108Z,101644.67
2018-07-13T21:23:33.557Z,101649.38
2018-07-13T21:26:02.112Z,101651.70
2018-07-13T21:28:30.230Z,101655.08
2018-07-13T21:30:58.859Z,101659.33
2018-07-13T21:33:27.504Z,101660.34
2018-07-13T21:35:55.892Z,101657.97
2018-07-13T21:38:24.016Z,101658.09
2018-07-13T21:40:52.600Z,101664.72
2018-07-13T21:43:21.424Z,101658.69
2018-07-13T21:45:49.508Z,101654.83
2018-07-13T21:48:17.612Z,101655.59
2018-07-13T21:50:46.452Z,101653.16
2018-07-13T21:53:15.200Z,101654.16
2018-07-13T21:55:43.300Z,101650.50
2018-07-13T21:58:11.748Z,101645.84
2018-07-13T22:00:41.844Z,101645.16
2018-07-13T22:03:10.420Z,101648.72
2018-07-13T22:05:38.532Z,101648.72
2018-07-13T22:08:07.292Z,101654.55
2018-07-13T22:10:35.389Z,101655.70
2018-07-13T22:13:03.752Z,101654.41
2018-07-13T22:15:33.301Z,101663.03
2018-07-13T22:18:01.878Z,101662.05
2018-07-13T22:20:30.505Z,101657.30
2018-07-13T22:22:58.660Z,101654.20
2018-07-13T22:25:27.031Z,101651.64
2018-07-13T22:27:55.723Z,101657.00
2018-07-13T22:30:24.136Z,101655.86
2018-07-13T22:32:52.763Z,101657.28
2018-07-13T22:35:21.335Z,101662.53
2018-07-13T22:37:50.007Z,101659.95
2018-07-13T22:40:18.175Z,101665.20
2018-07-13T22:42:46.739Z,101669.70
2018-07-13T22:45:15.371Z,101669.25
2018-07-13T22:47:43.471Z,101668.98
2018-07-13T22:50:11.579Z,101671.73
2018-07-13T22:52:40.008Z,101667.55
2018-07-13T22:55:08.439Z,101664.61
2018-07-13T22:57:37.405Z,101663.03
2018-07-13T23:00:05.872Z,101663.66
2018-07-13T23:02:34.437Z,101666.66
2018-07-13T23:05:02.549Z,101667.44
2018-07-13T23:07:30.972Z,101664.44
2018-07-13T23:09:59.379Z,101661.61
2018-07-13T23:12:27.905Z,101659.03
2018-07-13T23:14:56.836Z,101648.41
2018-07-13T23:17:25.694Z,101650.55
2018-07-13T23:19:54.727Z,101654.42
2018-07-13T23:22:23.152Z,101656.05
2018-07-13T23:24:51.483Z,101663.05
2018-07-13T23:27:19.920Z,101656.48
2018-07-13T23:29:48.664Z,101654.50
2018-07-13T23:32:17.336Z,101655.31
2018-07-13T23:34:45.645Z,101654.14
2018-07-13T23:37:13.736Z,101651.56
2018-07-13T23:39:41.849Z,101648.11
2018-07-13T23:42:10.257Z,101643.81
2018-07-13T23:44:38.696Z,101644.44
2018-07-13T23:47:07.428Z,101647.70
2018-07-13T23:49:35.547Z,101641.41
2018-07-13T23:52:04.173Z,101642.44
2018-07-13T23:54:32.671Z,101643.06
2018-07-13T23:57:00.761Z,101647.28
2018-07-13T23:59:29.224Z,101635.45
